Time;durP1;ratioP1;P1;durP2;ratioP2;P2;SDS_P1;SDS_P2;PMS_P1;PMS_P2;Temp;Humidity;BMP_temperature;BMP_pressure;BME280_temperature;BME280_humidity;BME280_pressure;Samples;Min_cycle;Max_cycle;Signal;HPM_P1;HPM_P2
2023/06/18 00:01:56;;;;;;;8.07;7.28;;;19.60;94.60;;;;;;5114218;28;20028;-55
2023/06/18 00:04:21;;;;;;;13.85;7.45;;;19.50;95.00;;;;;;5113618;28;20546;-55
2023/06/18 00:06:47;;;;;;;10.75;6.95;;;19.40;95.30;;;;;;5113914;28;20023;-55
2023/06/18 00:09:12;;;;;;;9.73;6.50;;;19.40;95.50;;;;;;5095547;28;20443;-54
2023/06/18 00:11:38;;;;;;;15.35;8.00;;;19.40;96.10;;;;;;5112745;28;20035;-54
2023/06/18 00:14:03;;;;;;;11.68;6.80;;;19.30;96.30;;;;;;5113265;28;20103;-56
2023/06/18 00:16:29;;;;;;;9.18;7.38;;;19.40;96.40;;;;;;5112773;28;20041;-58
2023/06/18 00:18:54;;;;;;;13.95;7.07;;;19.40;96.50;;;;;;5113544;28;20058;-55
2023/06/18 00:21:20;;;;;;;12.88;7.72;;;19.40;97.30;;;;;;5113764;28;20027;-55
2023/06/18 00:23:45;;;;;;;6.50;5.90;;;19.40;97.50;;;;;;5113989;28;20024;-56
2023/06/18 00:26:11;;;;;;;13.27;7.28;;;19.40;97.50;;;;;;5114246;28;20089;-53
2023/06/18 00:28:36;;;;;;;16.10;7.05;;;19.30;97.60;;;;;;5112716;28;20120;-54
2023/06/18 00:31:02;;;;;;;9.32;6.80;;;19.40;97.50;;;;;;5113697;28;20141;-52
2023/06/18 00:33:28;;;;;;;12.80;6.93;;;19.40;96.80;;;;;;5113464;28;20032;-54
2023/06/18 00:35:56;;;;;;;13.77;7.75;;;19.30;96.90;;;;;;5113203;28;20112;-55
2023/06/18 00:38:23;;;;;;;13.07;7.07;;;19.30;97.00;;;;;;5095004;28;20513;-52
2023/06/18 00:40:50;;;;;;;11.07;6.45;;;19.30;97.50;;;;;;5113343;28;20066;-55
2023/06/18 00:43:16;;;;;;;11.82;7.35;;;19.30;97.80;;;;;;5112859;28;20031;-54
2023/06/18 00:45:41;;;;;;;9.85;7.03;;;19.30;98.20;;;;;;5113120;28;20027;-55
2023/06/18 00:48:07;;;;;;;11.00;6.47;;;19.20;98.10;;;;;;5113135;28;20028;-53
2023/06/18 00:50:34;;;;;;;9.85;7.53;;;19.20;95.80;;;;;;5113079;28;20041;-56
2023/06/18 00:53:00;;;;;;;9.23;6.60;;;19.10;95.50;;;;;;5112587;28;20034;-52
2023/06/18 00:55:27;;;;;;;8.32;6.57;;;19.10;95.50;;;;;;5112679;28;20087;-54
2023/06/18 00:57:59;;;;;;;11.07;7.30;;;19.00;95.70;;;;;;5094581;28;20102;-52
2023/06/18 01:00:25;;;;;;;7.97;6.68;;;19.00;95.90;;;;;;5112964;28;20061;-56
2023/06/18 01:02:53;;;;;;;12.48;6.97;;;19.10;96.10;;;;;;5113417;28;20447;-52
2023/06/18 01:05:20;;;;;;;10.07;6.80;;;19.10;96.60;;;;;;5113039;28;20102;-53
2023/06/18 01:07:47;;;;;;;9.60;6.78;;;19.00;96.40;;;;;;5112709;28;20085;-54
2023/06/18 01:10:14;;;;;;;8.00;6.72;;;19.00;96.50;;;;;;5112678;28;20016;-57
2023/06/18 01:12:41;;;;;;;16.15;7.57;;;19.00;96.40;;;;;;5112206;28;20033;-53
2023/06/18 01:15:09;;;;;;;8.68;7.38;;;19.00;96.60;;;;;;5112219;28;20114;-55
2023/06/18 01:17:37;;;;;;;7.93;6.90;;;18.90;96.10;;;;;;5112531;28;20103;-55
2023/06/18 01:20:11;;;;;;;7.75;6.53;;;18.90;96.10;;;;;;5112423;28;20019;-55
2023/06/18 01:23:09;;;;;;;11.95;7.63;;;18.90;95.80;;;;;;5111900;28;20087;-56
2023/06/18 01:25:37;;;;;;;12.77;8.48;;;18.80;95.80;;;;;;5067013;28;20533;-54
2023/06/18 01:28:07;;;;;;;9.68;7.35;;;18.80;95.50;;;;;;5112118;28;20564;-57
2023/06/18 01:30:36;;;;;;;10.32;7.15;;;18.80;95.80;;;;;;5112230;28;20031;-57
2023/06/18 01:33:04;;;;;;;11.40;7.30;;;18.80;96.40;;;;;;5112022;28;20027;-51
2023/06/18 01:35:30;;;;;;;14.88;7.82;;;18.80;97.20;;;;;;5111950;28;20016;-56
2023/06/18 01:38:16;;;;;;;11.52;7.55;;;18.80;97.10;;;;;;5093975;28;20072;-56
2023/06/18 01:40:56;;;;;;;9.82;7.95;;;18.70;96.10;;;;;;5112687;28;20483;-57
2023/06/18 01:43:36;;;;;;;8.35;7.45;;;18.70;95.70;;;;;;5111783;28;20111;-57
2023/06/18 01:46:07;;;;;;;13.13;7.95;;;18.60;95.10;;;;;;5111894;28;20023;-54
2023/06/18 01:48:51;;;;;;;8.80;7.80;;;18.50;95.60;;;;;;5112031;28;20110;-52
2023/06/18 01:51:19;;;;;;;14.93;7.90;;;18.40;95.60;;;;;;5112120;28;20084;-56
2023/06/18 01:53:46;;;;;;;7.15;6.40;;;18.40;95.60;;;;;;5093212;28;20441;-53
2023/06/18 01:56:13;;;;;;;7.90;7.03;;;18.40;96.70;;;;;;5111568;28;20065;-55
2023/06/18 01:58:42;;;;;;;10.23;7.38;;;18.40;97.20;;;;;;5111865;28;20027;-51
2023/06/18 02:01:09;;;;;;;12.57;7.57;;;18.40;97.30;;;;;;5112220;28;20026;-56
2023/06/18 02:03:35;;;;;;;8.77;7.43;;;18.40;97.60;;;;;;5111903;28;20069;-54
2023/06/18 02:06:01;;;;;;;12.57;7.75;;;18.40;96.90;;;;;;5111597;28;20442;-56
2023/06/18 02:08:27;;;;;;;9.05;7.93;;;18.30;97.00;;;;;;5111887;28;20494;-55
2023/06/18 02:10:52;;;;;;;10.65;7.85;;;18.40;97.40;;;;;;5111816;28;20115;-54
2023/06/18 02:13:18;;;;;;;9.57;7.88;;;18.30;96.70;;;;;;5093288;28;20391;-55
2023/06/18 02:15:43;;;;;;;7.50;6.80;;;18.30;97.40;;;;;;5111564;28;20024;-57
2023/06/18 02:18:11;;;;;;;9.98;7.38;;;18.30;97.90;;;;;;5111379;28;20509;-57
2023/06/18 02:20:38;;;;;;;8.60;6.93;;;18.20;98.30;;;;;;5111929;28;20375;-54
2023/06/18 02:23:04;;;;;;;10.48;7.22;;;18.10;98.60;;;;;;5111338;28;20024;-53
2023/06/18 02:25:29;;;;;;;9.57;7.80;;;18.00;99.00;;;;;;5111587;28;20051;-56
2023/06/18 02:27:57;;;;;;;9.18;7.10;;;17.90;97.90;;;;;;5111902;28;20124;-56
2023/06/18 02:30:22;;;;;;;9.77;7.65;;;17.90;97.10;;;;;;5110877;28;20061;-51
2023/06/18 02:32:48;;;;;;;9.98;7.18;;;17.90;97.00;;;;;;5111509;28;20039;-56
2023/06/18 02:35:15;;;;;;;9.85;8.13;;;18.10;96.70;;;;;;5114365;28;20019;-56
2023/06/18 02:37:41;;;;;;;10.95;7.88;;;18.10;96.50;;;;;;5115880;28;20077;-56
2023/06/18 02:40:07;;;;;;;12.25;7.60;;;18.00;96.60;;;;;;5115777;28;20430;-56
2023/06/18 02:42:33;;;;;;;11.13;7.85;;;17.90;96.90;;;;;;5115118;28;20032;-52
2023/06/18 02:44:59;;;;;;;9.48;7.60;;;17.80;97.60;;;;;;5115266;28;20031;-57
2023/06/18 02:47:25;;;;;;;9.07;7.97;;;17.60;98.90;;;;;;5115598;28;20027;-56
2023/06/18 02:49:50;;;;;;;8.63;7.25;;;17.60;98.90;;;;;;5115607;28;20073;-56
2023/06/18 02:52:16;;;;;;;9.57;7.80;;;17.40;99.10;;;;;;5115157;28;20028;-56
2023/06/18 02:54:43;;;;;;;11.95;8.13;;;17.40;99.40;;;;;;5115397;28;20035;-51
2023/06/18 02:57:08;;;;;;;10.75;7.50;;;17.40;99.80;;;;;;5115311;28;20023;-53
2023/06/18 02:59:34;;;;;;;8.52;7.03;;;17.40;99.80;;;;;;5115262;28;20031;-57
2023/06/18 03:02:01;;;;;;;7.43;6.72;;;17.50;99.90;;;;;;5097013;28;20024;-54
2023/06/18 03:04:26;;;;;;;7.43;6.68;;;17.50;99.90;;;;;;5114600;28;20071;-55
2023/06/18 03:06:53;;;;;;;13.18;7.93;;;17.40;99.90;;;;;;5115239;28;20491;-51
2023/06/18 03:09:19;;;;;;;9.23;7.97;;;17.40;99.80;;;;;;5115118;28;20028;-52
2023/06/18 03:11:44;;;;;;;9.45;8.30;;;17.40;98.90;;;;;;5114927;28;20437;-53
2023/06/18 03:14:10;;;;;;;12.35;8.25;;;17.30;98.90;;;;;;5114455;28;20027;-53
2023/06/18 03:16:35;;;;;;;16.13;9.68;;;17.00;99.60;;;;;;5114902;28;20051;-54
2023/06/18 03:19:01;;;;;;;10.50;8.85;;;16.90;99.90;;;;;;5096539;28;20130;-52
2023/06/18 03:21:26;;;;;;;15.82;9.13;;;16.80;99.90;;;;;;5114865;28;20042;-55
2023/06/18 03:23:52;;;;;;;10.35;9.32;;;16.70;99.90;;;;;;5114181;28;20402;-49
2023/06/18 03:26:18;;;;;;;10.75;9.07;;;16.60;99.90;;;;;;5114776;28;20026;-55
2023/06/18 03:28:43;;;;;;;12.77;9.40;;;16.60;99.90;;;;;;5113559;28;20027;-54
2023/06/18 03:31:09;;;;;;;12.60;9.57;;;16.60;99.90;;;;;;5114777;28;20032;-57
2023/06/18 03:33:35;;;;;;;11.40;8.50;;;16.60;99.90;;;;;;5114106;28;20020;-58
2023/06/18 03:36:00;;;;;;;10.85;9.75;;;16.50;99.90;;;;;;5114220;28;20020;-54
2023/06/18 03:38:29;;;;;;;13.65;8.60;;;16.50;99.90;;;;;;5114702;28;20023;-53
2023/06/18 03:40:54;;;;;;;11.13;9.13;;;16.40;99.90;;;;;;5114480;28;20031;-54
2023/06/18 03:43:20;;;;;;;12.27;9.38;;;16.50;99.90;;;;;;5114098;28;20024;-51
2023/06/18 03:45:45;;;;;;;11.82;8.68;;;16.50;99.90;;;;;;5113834;28;20032;-56
2023/06/18 03:48:11;;;;;;;11.52;8.95;;;16.50;99.90;;;;;;5114297;28;20055;-54
2023/06/18 03:50:36;;;;;;;15.05;9.57;;;16.40;99.90;;;;;;5114506;28;20031;-55
2023/06/18 03:53:02;;;;;;;10.73;8.68;;;16.40;99.90;;;;;;5113863;28;20114;-55
2023/06/18 03:55:28;;;;;;;10.38;8.88;;;16.40;99.90;;;;;;5113825;28;20413;-54
2023/06/18 03:57:53;;;;;;;11.18;9.07;;;16.30;99.90;;;;;;5114158;28;20479;-54
2023/06/18 04:00:19;;;;;;;13.18;9.32;;;16.30;99.90;;;;;;5114613;28;20016;-56
2023/06/18 04:02:45;;;;;;;13.70;9.32;;;16.20;99.90;;;;;;5113778;28;20030;-55
2023/06/18 04:05:10;;;;;;;12.88;9.00;;;16.20;99.90;;;;;;5113737;28;20106;-55
2023/06/18 04:07:36;;;;;;;11.38;9.88;;;16.20;99.90;;;;;;5113951;28;20024;-52
2023/06/18 04:10:02;;;;;;;12.43;9.52;;;16.40;99.90;;;;;;5113988;28;20039;-57
2023/06/18 04:12:28;;;;;;;12.48;9.57;;;16.40;99.90;;;;;;5113365;28;20020;-54
2023/06/18 04:14:53;;;;;;;9.82;8.77;;;16.40;99.90;;;;;;5113567;28;20020;-57
2023/06/18 04:17:19;;;;;;;13.52;9.85;;;16.40;99.90;;;;;;5114105;28;20024;-56
2023/06/18 04:19:44;;;;;;;9.98;8.98;;;16.50;99.90;;;;;;5113833;28;20039;-55
2023/06/18 04:22:10;;;;;;;32.45;10.90;;;16.60;99.90;;;;;;5113726;28;20027;-54
2023/06/18 04:24:35;;;;;;;10.43;9.43;;;16.70;99.90;;;;;;5094786;28;20034;-57
2023/06/18 04:27:01;;;;;;;13.82;9.80;;;16.80;99.90;;;;;;5113743;28;20080;-56
2023/06/18 04:29:26;;;;;;;10.80;9.65;;;16.80;99.90;;;;;;5113038;28;20157;-56
2023/06/18 04:31:52;;;;;;;15.00;9.77;;;16.90;99.90;;;;;;5113895;28;20072;-52
2023/06/18 04:34:17;;;;;;;14.48;9.50;;;17.00;99.90;;;;;;5112924;28;20066;-56
2023/06/18 04:36:43;;;;;;;16.20;9.68;;;17.10;99.90;;;;;;5095130;28;20027;-56
2023/06/18 04:39:09;;;;;;;13.95;10.07;;;17.20;99.90;;;;;;5113666;28;20023;-54
2023/06/18 04:41:34;;;;;;;12.98;9.32;;;17.20;99.90;;;;;;5113700;28;20022;-56
2023/06/18 04:44:00;;;;;;;11.07;9.05;;;17.30;99.90;;;;;;5112383;28;20395;-55
2023/06/18 04:46:25;;;;;;;12.85;9.60;;;17.40;99.90;;;;;;5113425;28;20108;-54
2023/06/18 04:48:51;;;;;;;10.23;9.18;;;17.50;99.90;;;;;;5113095;28;20042;-56
2023/06/18 04:51:16;;;;;;;14.98;9.48;;;17.70;99.90;;;;;;5113146;28;20019;-54
2023/06/18 04:53:43;;;;;;;16.90;9.68;;;17.90;99.90;;;;;;5094354;28;20110;-55
2023/06/18 04:56:08;;;;;;;15.80;9.65;;;18.20;99.30;;;;;;5112621;28;20047;-51
2023/06/18 04:58:36;;;;;;;10.90;8.68;;;18.60;98.30;;;;;;5112431;28;20502;-56
2023/06/18 05:01:03;;;;;;;11.27;9.40;;;18.90;97.70;;;;;;5112878;28;20028;-54
2023/06/18 05:03:28;;;;;;;10.15;9.07;;;19.20;97.40;;;;;;5112301;28;20016;-55
2023/06/18 05:05:54;;;;;;;9.80;8.23;;;19.60;96.30;;;;;;5112458;28;20043;-54
2023/06/18 05:08:20;;;;;;;12.90;9.43;;;20.00;95.80;;;;;;5112800;28;20186;-53
2023/06/18 05:10:45;;;;;;;12.38;9.50;;;20.60;94.10;;;;;;5112774;28;20024;-52
2023/06/18 05:13:11;;;;;;;14.00;9.60;;;21.00;93.30;;;;;;5112264;28;20507;-53
2023/06/18 05:15:37;;;;;;;10.85;8.18;;;21.20;93.00;;;;;;5094025;28;20398;-54
2023/06/18 05:18:03;;;;;;;11.30;9.13;;;21.40;92.30;;;;;;5112353;28;20053;-54
2023/06/18 05:20:28;;;;;;;10.73;8.20;;;21.50;91.70;;;;;;5113181;28;20061;-51
2023/06/18 05:22:54;;;;;;;12.90;8.70;;;22.20;91.00;;;;;;5112395;28;20479;-53
2023/06/18 05:25:19;;;;;;;9.40;8.48;;;22.50;90.20;;;;;;5112364;28;20032;-52
2023/06/18 05:27:45;;;;;;;12.30;8.85;;;22.90;88.90;;;;;;5094146;28;20028;-54
2023/06/18 05:30:11;;;;;;;11.35;8.00;;;23.00;87.40;;;;;;5111449;28;20026;-54
2023/06/18 05:32:36;;;;;;;8.98;8.00;;;23.30;86.70;;;;;;5111938;28;20059;-54
2023/06/18 05:35:02;;;;;;;9.75;8.38;;;23.50;87.10;;;;;;5112013;28;20024;-56
2023/06/18 05:37:27;;;;;;;9.50;7.88;;;23.60;85.60;;;;;;5112427;28;20077;-56
2023/06/18 05:39:53;;;;;;;9.88;8.30;;;23.70;86.10;;;;;;5093939;28;20015;-54
2023/06/18 05:42:19;;;;;;;10.50;8.40;;;23.90;84.80;;;;;;5111700;28;20027;-53
2023/06/18 05:44:45;;;;;;;9.02;8.02;;;24.10;83.70;;;;;;5111850;28;20041;-54
2023/06/18 05:47:10;;;;;;;11.02;8.50;;;24.10;83.70;;;;;;5112181;28;20067;-54
2023/06/18 05:49:36;;;;;;;8.45;7.65;;;24.10;83.60;;;;;;5112517;28;20051;-52
2023/06/18 05:52:01;;;;;;;9.75;8.00;;;24.00;83.70;;;;;;5112028;28;20483;-57
2023/06/18 05:54:27;;;;;;;10.43;7.85;;;24.20;82.80;;;;;;5093088;28;20114;-56
2023/06/18 05:56:52;;;;;;;8.30;7.45;;;24.10;83.40;;;;;;5093603;28;20031;-53
2023/06/18 05:59:18;;;;;;;9.55;7.30;;;24.10;82.70;;;;;;5111898;28;20027;-53
2023/06/18 06:01:43;;;;;;;10.20;7.47;;;24.20;82.00;;;;;;5093656;28;20110;-55
2023/06/18 06:04:09;;;;;;;9.50;7.65;;;24.10;82.30;;;;;;5111286;28;20026;-57
2023/06/18 06:06:36;;;;;;;9.50;7.22;;;24.10;82.70;;;;;;5111857;28;20524;-50
2023/06/18 06:09:02;;;;;;;9.32;7.82;;;23.90;83.70;;;;;;5111033;28;20027;-53
2023/06/18 06:11:27;;;;;;;8.73;7.15;;;23.80;83.30;;;;;;5093537;28;20019;-55
2023/06/18 06:13:53;;;;;;;8.57;7.30;;;24.00;83.50;;;;;;5110939;28;20499;-49
2023/06/18 06:16:18;;;;;;;8.68;7.30;;;24.10;83.00;;;;;;5111544;28;20016;-57
2023/06/18 06:18:44;;;;;;;8.70;6.55;;;24.50;81.70;;;;;;5111609;28;20040;-56
2023/06/18 06:21:09;;;;;;;8.52;7.30;;;24.60;82.70;;;;;;5111653;28;20479;-55
2023/06/18 06:23:35;;;;;;;8.35;7.05;;;24.80;81.60;;;;;;5111357;28;20027;-53
2023/06/18 06:26:01;;;;;;;9.55;6.60;;;25.30;81.20;;;;;;5093314;28;20051;-57
2023/06/18 06:28:26;;;;;;;7.68;6.63;;;25.60;80.40;;;;;;5110765;28;20027;-55
2023/06/18 06:30:52;;;;;;;6.90;6.30;;;26.00;78.60;;;;;;5112232;28;20035;-56
2023/06/18 06:33:17;;;;;;;9.27;6.78;;;26.00;78.40;;;;;;5111858;28;20035;-52
2023/06/18 06:35:43;;;;;;;7.55;6.90;;;26.00;77.60;;;;;;5112883;28;20065;-56
2023/06/18 06:38:09;;;;;;;9.50;6.88;;;25.60;77.30;;;;;;5093587;28;20020;-56
2023/06/18 06:40:34;;;;;;;11.98;7.10;;;25.40;77.30;;;;;;5111534;28;20318;-56
2023/06/18 06:43:00;;;;;;;7.72;6.07;;;25.50;77.10;;;;;;5111140;28;20054;-54
2023/06/18 06:45:27;;;;;;;10.25;6.90;;;25.80;77.50;;;;;;5111264;28;20031;-55
2023/06/18 06:47:53;;;;;;;9.63;6.97;;;25.80;77.20;;;;;;5111341;28;20019;-52
2023/06/18 06:50:19;;;;;;;9.77;6.88;;;25.90;77.20;;;;;;5111643;28;20032;-52
2023/06/18 06:52:45;;;;;;;8.02;6.72;;;26.20;76.90;;;;;;5111136;28;20023;-52
2023/06/18 06:55:11;;;;;;;7.90;7.13;;;26.50;75.50;;;;;;5110974;28;20024;-53
2023/06/18 06:57:36;;;;;;;8.35;6.68;;;26.70;75.80;;;;;;5111402;28;20020;-51
2023/06/18 07:00:03;;;;;;;7.70;6.90;;;26.80;75.40;;;;;;5111342;28;20102;-52
2023/06/18 07:02:30;;;;;;;7.40;6.60;;;27.40;74.70;;;;;;5110923;28;20479;-55
2023/06/18 07:04:56;;;;;;;9.38;6.45;;;27.90;74.40;;;;;;5111086;28;20398;-55
2023/06/18 07:07:21;;;;;;;7.07;6.38;;;28.40;72.10;;;;;;5111355;28;20028;-51
2023/06/18 07:09:47;;;;;;;8.77;6.45;;;28.50;71.90;;;;;;5111393;28;20108;-52
2023/06/18 07:12:12;;;;;;;11.10;6.70;;;28.90;71.60;;;;;;5111233;28;20024;-51
2023/06/18 07:14:38;;;;;;;10.60;6.43;;;29.20;70.20;;;;;;5110613;28;20090;-49
2023/06/18 07:17:04;;;;;;;10.85;6.32;;;28.80;70.80;;;;;;5111584;28;20020;-50
2023/06/18 07:19:29;;;;;;;8.57;7.15;;;28.60;71.70;;;;;;5111097;28;20032;-54
2023/06/18 07:21:55;;;;;;;7.07;6.30;;;29.00;70.50;;;;;;5114875;28;20110;-52
2023/06/18 07:24:20;;;;;;;7.03;6.32;;;29.10;70.90;;;;;;5095876;28;20020;-51
2023/06/18 07:26:46;;;;;;;12.02;6.57;;;29.20;69.60;;;;;;5096503;28;20028;-51
2023/06/18 07:29:12;;;;;;;10.18;7.00;;;29.70;69.40;;;;;;5113842;28;20038;-51
2023/06/18 07:31:38;;;;;;;9.30;6.10;;;29.40;69.20;;;;;;5114706;28;20517;-52
2023/06/18 07:34:03;;;;;;;6.70;6.00;;;29.80;68.90;;;;;;5095844;28;20065;-52
2023/06/18 07:36:29;;;;;;;6.82;6.20;;;30.40;67.80;;;;;;5114455;28;20099;-50
2023/06/18 07:38:56;;;;;;;6.88;6.18;;;30.50;66.60;;;;;;5114415;28;20479;-49
2023/06/18 07:41:21;;;;;;;6.03;5.43;;;30.60;66.10;;;;;;5114759;28;20038;-55
2023/06/18 07:43:47;;;;;;;11.15;6.25;;;30.70;66.80;;;;;;5114275;28;20031;-50
2023/06/18 07:46:13;;;;;;;14.32;5.55;;;31.30;65.90;;;;;;5114243;28;20551;-53
2023/06/18 07:48:39;;;;;;;7.95;5.57;;;31.30;65.10;;;;;;5096353;28;20031;-52
2023/06/18 07:51:05;;;;;;;6.65;5.25;;;31.70;63.00;;;;;;5114265;28;20027;-52
2023/06/18 07:53:32;;;;;;;7.25;5.85;;;31.40;62.60;;;;;;5113980;28;20031;-49
2023/06/18 07:55:57;;;;;;;9.10;5.50;;;31.70;62.00;;;;;;5113958;28;20552;-49
2023/06/18 07:58:23;;;;;;;6.43;5.18;;;31.90;61.80;;;;;;5108861;28;20116;-53
2023/06/18 08:00:48;;;;;;;5.22;4.82;;;32.30;61.80;;;;;;5111971;28;20030;-46
2023/06/18 08:03:14;;;;;;;8.15;5.07;;;32.40;60.80;;;;;;5113809;28;20493;-52
2023/06/18 08:05:39;;;;;;;10.40;6.13;;;32.80;60.90;;;;;;5113647;28;20053;-49
2023/06/18 08:08:05;;;;;;;8.15;5.55;;;33.30;60.70;;;;;;5095696;28;20106;-53
2023/06/18 08:10:30;;;;;;;10.10;5.15;;;33.50;59.80;;;;;;5113962;28;20475;-56
2023/06/18 08:12:56;;;;;;;8.48;5.38;;;33.60;59.20;;;;;;5111296;28;20035;-50
2023/06/18 08:15:22;;;;;;;10.68;6.07;;;33.90;59.10;;;;;;5094309;28;20410;-51
2023/06/18 08:17:48;;;;;;;6.45;5.35;;;33.90;58.90;;;;;;5095990;28;20035;-52
2023/06/18 08:20:13;;;;;;;6.40;5.88;;;33.30;59.30;;;;;;5075167;28;20391;-51
2023/06/18 08:22:39;;;;;;;6.13;5.53;;;32.80;59.60;;;;;;5092642;28;20024;-54
2023/06/18 08:25:06;;;;;;;6.45;5.85;;;32.20;60.70;;;;;;5092657;28;20039;-53
2023/06/18 08:27:32;;;;;;;7.13;6.03;;;32.30;60.90;;;;;;5093163;28;20545;-49
2023/06/18 08:29:57;;;;;;;10.77;5.45;;;32.20;61.10;;;;;;5097725;28;20027;-50
2023/06/18 08:32:23;;;;;;;5.80;5.30;;;32.20;61.70;;;;;;5105532;28;20026;-54
2023/06/18 08:34:49;;;;;;;10.90;5.53;;;32.20;60.90;;;;;;5112713;28;20100;-53
2023/06/18 08:37:14;;;;;;;6.70;6.00;;;32.10;61.20;;;;;;5113375;28;20011;-55
2023/06/18 08:39:40;;;;;;;8.68;5.63;;;32.20;60.30;;;;;;5113505;28;20019;-53
2023/06/18 08:42:06;;;;;;;6.50;5.90;;;32.00;60.80;;;;;;5113987;28;20387;-54
2023/06/18 08:44:36;;;;;;;7.20;5.28;;;31.80;60.40;;;;;;5113120;28;20036;-53
2023/06/18 08:47:03;;;;;;;12.20;6.68;;;31.70;61.10;;;;;;5113913;28;20103;-53
2023/06/18 08:49:30;;;;;;;8.63;5.95;;;31.80;61.00;;;;;;5113928;28;20080;-54
2023/06/18 08:51:57;;;;;;;12.25;5.97;;;31.40;61.30;;;;;;5113299;28;20393;-50
2023/06/18 08:54:32;;;;;;;11.13;6.70;;;31.50;61.40;;;;;;5094058;28;20146;-53
2023/06/18 08:57:15;;;;;;;8.32;6.22;;;31.40;60.10;;;;;;5112951;28;20027;-54
2023/06/18 08:59:43;;;;;;;9.93;5.80;;;31.30;60.00;;;;;;5112944;28;20020;-51
2023/06/18 09:02:11;;;;;;;8.68;5.68;;;31.20;59.90;;;;;;5113063;28;20030;-55
2023/06/18 09:04:38;;;;;;;15.25;5.95;;;30.90;60.60;;;;;;5112145;28;20156;-52
2023/06/18 09:07:04;;;;;;;9.27;5.68;;;30.80;61.60;;;;;;5094468;28;20036;-53
2023/06/18 09:09:30;;;;;;;6.30;5.70;;;30.90;61.10;;;;;;5112521;28;20081;-50
2023/06/18 09:11:57;;;;;;;8.05;5.78;;;30.90;61.10;;;;;;5112484;28;20055;-51
2023/06/18 09:14:23;;;;;;;6.32;5.75;;;31.00;60.90;;;;;;5111031;28;20012;-53
2023/06/18 09:16:49;;;;;;;8.38;7.15;;;30.90;61.10;;;;;;5112483;28;20027;-55
2023/06/18 09:19:16;;;;;;;6.25;5.63;;;30.80;60.50;;;;;;5111458;28;20422;-51
2023/06/18 09:21:43;;;;;;;10.18;5.57;;;31.00;61.50;;;;;;5112124;28;20486;-52
2023/06/18 09:24:21;;;;;;;6.95;6.05;;;31.10;60.50;;;;;;5110984;28;20471;-51
2023/06/18 09:27:07;;;;;;;12.70;6.10;;;31.20;60.30;;;;;;5111888;28;20024;-52
2023/06/18 09:29:34;;;;;;;8.60;5.82;;;31.10;60.70;;;;;;5104823;28;20027;-47
2023/06/18 09:32:09;;;;;;;6.10;5.50;;;31.00;61.30;;;;;;5110312;28;20120;-48
2023/06/18 09:34:36;;;;;;;9.50;5.60;;;31.20;62.10;;;;;;5110682;28;20019;-50
2023/06/18 09:37:03;;;;;;;7.25;5.85;;;31.40;61.60;;;;;;5111430;28;20024;-52
2023/06/18 09:39:29;;;;;;;11.98;5.50;;;31.50;59.00;;;;;;5107795;28;20024;-52
2023/06/18 09:41:55;;;;;;;11.65;5.75;;;31.40;60.10;;;;;;5111935;28;20441;-57
2023/06/18 09:44:22;;;;;;;10.57;8.23;;;31.30;59.40;;;;;;5107453;28;20391;-51
2023/06/18 09:46:50;;;;;;;33.35;27.88;;;31.10;59.40;;;;;;5111605;28;20038;-52
2023/06/18 09:49:18;;;;;;;10.77;6.80;;;31.00;60.00;;;;;;5111214;28;20092;-55
2023/06/18 09:51:44;;;;;;;5.93;5.38;;;31.00;61.40;;;;;;5111000;28;20073;-49
2023/06/18 09:54:10;;;;;;;9.85;5.40;;;30.90;61.20;;;;;;5090984;28;20015;-52
2023/06/18 09:56:37;;;;;;;8.10;5.45;;;30.70;61.00;;;;;;5093332;28;20073;-51
2023/06/18 09:59:04;;;;;;;9.70;5.88;;;30.50;60.90;;;;;;5111444;28;20077;-49
2023/06/18 10:01:46;;;;;;;8.98;5.53;;;30.10;60.70;;;;;;5111744;28;20386;-52
2023/06/18 10:04:12;;;;;;;8.02;5.63;;;29.90;61.00;;;;;;5108884;28;20035;-54
2023/06/18 10:06:40;;;;;;;6.88;5.30;;;29.80;61.80;;;;;;5101404;28;20032;-52
2023/06/18 10:09:07;;;;;;;7.35;5.32;;;29.80;60.30;;;;;;5112152;28;20485;-52
2023/06/18 10:11:35;;;;;;;9.63;5.40;;;29.80;60.80;;;;;;5092755;28;20032;-53
2023/06/18 10:14:08;;;;;;;8.88;6.32;;;29.90;61.30;;;;;;5110635;28;20475;-55
2023/06/18 10:16:35;;;;;;;10.80;6.63;;;30.00;61.90;;;;;;5111561;28;20023;-50
2023/06/18 10:19:14;;;;;;;6.05;5.45;;;30.10;62.00;;;;;;5107417;28;20055;-51
2023/06/18 10:22:00;;;;;;;10.73;6.30;;;30.20;61.20;;;;;;5110430;28;20068;-48
2023/06/18 10:24:53;;;;;;;8.05;5.93;;;30.10;60.50;;;;;;5092587;28;20406;-56
2023/06/18 10:27:19;;;;;;;12.75;6.25;;;30.20;61.20;;;;;;5111643;28;20031;-54
2023/06/18 10:29:46;;;;;;;9.63;5.95;;;30.20;62.50;;;;;;5111220;28;20020;-49
2023/06/18 10:32:13;;;;;;;11.75;7.05;;;30.20;59.60;;;;;;5092890;28;20419;-52
2023/06/18 10:34:39;;;;;;;8.00;5.72;;;30.10;60.30;;;;;;5110170;28;20020;-50
2023/06/18 10:37:07;;;;;;;6.97;6.28;;;30.10;60.50;;;;;;5111518;28;20031;-48
2023/06/18 10:39:34;;;;;;;6.32;5.30;;;30.20;61.30;;;;;;5109740;28;20135;-53
2023/06/18 10:42:12;;;;;;;6.00;5.45;;;30.20;59.50;;;;;;5106131;28;20491;-50
2023/06/18 10:44:58;;;;;;;8.40;5.68;;;30.20;59.20;;;;;;5110173;28;20028;-50
2023/06/18 10:47:24;;;;;;;8.18;6.38;;;30.00;59.90;;;;;;5108885;28;20020;-50
2023/06/18 10:50:02;;;;;;;8.07;5.95;;;30.00;61.20;;;;;;5111606;28;20110;-50
2023/06/18 10:52:38;;;;;;;8.82;5.43;;;30.00;61.60;;;;;;5102459;28;20023;-53
2023/06/18 10:55:15;;;;;;;7.18;5.75;;;30.00;60.50;;;;;;5112041;28;20034;-48
2023/06/18 10:57:43;;;;;;;6.65;4.95;;;29.90;59.80;;;;;;5096507;28;20020;-47
2023/06/18 11:00:21;;;;;;;7.00;4.63;;;29.90;57.00;;;;;;5109258;28;20019;-52
2023/06/18 11:02:49;;;;;;;7.13;5.45;;;29.80;58.00;;;;;;5114603;28;20104;-46
2023/06/18 11:06:04;;;;;;;7.13;4.82;;;29.80;58.90;;;;;;5107810;28;20099;-52
2023/06/18 11:08:34;;;;;;;5.15;4.70;;;29.80;59.00;;;;;;5100277;28;20103;-49
2023/06/18 11:11:09;;;;;;;10.98;5.00;;;29.70;58.30;;;;;;5114980;28;20023;-49
2023/06/18 11:13:37;;;;;;;6.45;5.07;;;29.70;58.50;;;;;;5114256;28;20042;-54
2023/06/18 11:16:05;;;;;;;10.60;5.05;;;29.70;57.80;;;;;;5114744;28;20024;-50
2023/06/18 11:18:31;;;;;;;5.03;4.63;;;29.70;57.40;;;;;;5134638;22;20028;-50
2023/06/18 11:20:58;;;;;;;6.88;4.63;;;29.60;57.30;;;;;;5066628;28;20045;-50
2023/06/18 11:23:24;;;;;;;5.05;4.60;;;29.40;56.90;;;;;;5073303;28;20126;-51
2023/06/18 11:25:50;;;;;;;5.40;4.60;;;29.30;56.70;;;;;;5073355;28;20099;-48
2023/06/18 11:28:16;;;;;;;5.82;5.20;;;29.40;56.30;;;;;;5073630;28;20020;-48
2023/06/18 11:30:51;;;;;;;8.27;7.13;;;29.30;56.60;;;;;;5073389;28;20032;-51
2023/06/18 11:33:23;;;;;;;;;;;29.20;57.50;;;;;;5073926;28;20029;-56
2023/06/18 11:35:49;;;;;;;20.85;9.73;;;29.20;55.70;;;;;;5066255;28;19947;-51
2023/06/18 11:38:19;;;;;;;24.95;10.60;;;29.10;57.20;;;;;;5057606;28;20032;-50
2023/06/18 11:40:50;;;;;;;6.85;5.75;;;29.00;57.50;;;;;;5066651;28;20037;-52
2023/06/18 11:43:15;;;;;;;11.18;6.90;;;29.10;57.30;;;;;;5055351;28;20029;-52
2023/06/18 11:45:45;;;;;;;11.70;7.57;;;29.20;57.90;;;;;;5058070;28;20111;-50
2023/06/18 11:48:10;;;;;;;10.75;5.75;;;29.20;58.10;;;;;;5078131;28;20021;-49
2023/06/18 11:50:36;;;;;;;5.88;5.20;;;29.30;58.60;;;;;;5057289;28;20029;-48
2023/06/18 11:53:05;;;;;;;6.72;4.80;;;29.30;58.90;;;;;;5080996;28;20546;-49
2023/06/18 11:55:33;;;;;;;6.20;5.25;;;29.20;60.00;;;;;;5074067;28;20464;-56
2023/06/18 11:58:00;;;;;;;5.82;4.70;;;29.20;58.40;;;;;;5067923;28;20512;-50
2023/06/18 12:00:26;;;;;;;4.93;4.40;;;29.20;57.30;;;;;;5073089;28;20395;-50
2023/06/18 12:02:52;;;;;;;5.80;4.82;;;29.30;56.90;;;;;;5055392;28;20025;-50
2023/06/18 12:05:17;;;;;;;4.70;4.18;;;29.30;57.60;;;;;;5073169;28;20029;-51
2023/06/18 12:07:44;;;;;;;4.82;4.40;;;29.30;58.50;;;;;;5073709;28;20510;-52
2023/06/18 12:10:11;;;;;;;4.93;4.15;;;29.30;57.60;;;;;;5073243;28;20028;-50
2023/06/18 12:12:55;;;;;;;4.60;3.92;;;29.40;57.50;;;;;;5072641;28;20039;-55
2023/06/18 12:15:31;;;;;;;7.50;4.47;;;29.30;58.00;;;;;;5072923;28;20025;-52
2023/06/18 12:18:08;;;;;;;4.43;4.10;;;29.40;57.20;;;;;;5068151;28;20412;-53
2023/06/18 12:20:35;;;;;;;4.88;4.32;;;29.40;57.00;;;;;;5053709;28;20062;-54
2023/06/18 12:23:02;;;;;;;4.93;4.43;;;29.30;57.70;;;;;;5054009;28;20051;-52
2023/06/18 12:25:30;;;;;;;4.90;4.45;;;29.30;57.20;;;;;;5054363;28;20025;-53
2023/06/18 12:27:57;;;;;;;4.85;4.45;;;29.30;58.80;;;;;;5053726;28;20032;-52
2023/06/18 12:30:31;;;;;;;7.07;4.53;;;29.30;59.30;;;;;;5054046;28;20386;-51
2023/06/18 12:33:07;;;;;;;8.45;4.38;;;29.30;59.10;;;;;;5036505;28;20039;-51
2023/06/18 12:35:34;;;;;;;4.70;4.22;;;29.40;57.30;;;;;;5055473;28;20027;-56
2023/06/18 12:38:04;;;;;;;4.75;4.20;;;29.40;57.20;;;;;;5052940;28;20100;-47
2023/06/18 12:40:31;;;;;;;6.50;4.35;;;29.30;58.00;;;;;;5053453;28;20021;-48
2023/06/18 12:42:58;;;;;;;5.25;4.72;;;29.30;58.70;;;;;;5058713;28;20032;-50
2023/06/18 12:45:32;;;;;;;4.35;3.95;;;29.30;59.60;;;;;;5055990;28;20025;-52